Winkler County Airport
KINK : now visible

Airfield :











YOU CAN JOIN US ON...

 
LOGIN :

Register | Disclaimer

   EN    FR    IT 

 









Legend :    VFR   Marginal VFR   IFR   Intensive IFR   Very Intensive IFR
Visi :
Ceiling :
>= 8 km
>= 3000ft
5 to 8 km
1000 to 3000 ft
1500m to 5 km
500 to 1000 ft
800 to 1500m
200 to 500 ft
< 800m
< 200 ft
Symbols :   Thunderstorms  Fog  Heavy snow  Heavy precipitations  Wind > 20 kt







- Airport Elevation : 2822 ft


KINK - Winkler County

CURRENT METAR :
  • 201953Z AUTO 15009G18KT 10SM CLR 34/15 A2988 RMK AO2 SLP070 T03390150

EXPIRED METARs :
  • 201853Z AUTO 18010G14KT 10SM FEW110 33/16 A2991 RMK AO2 SLP079 T03330156
  • 201753Z AUTO 18009KT 10SM FEW110 31/17 A2993 RMK AO2 RAB07E15 SLP087 P0000 60000 T03110167 10311 20222 58003

TAF KINK
Valid from the 20 at 18:00 until the 21 at 18:00 UTC


201737Z 2018/2118 16011G17KT P6SM SCT080 BKN120
No reported NOTAMs for that airfield.



MET'MAP, your aeronautical weather chart ! - Copyright ORBIFLY December 2007 - Disclaimer

ORBIFLY MET'MAP TEAM :

Programming & Development : Alexandra Zaïnal
Concept & Development : Baudouin d'Aumeries
Co-Development & Prog : Marc-Olivier Méhu
Technical & hardware support : Manuel Goepfert

Contact : metmap@orbifly.com




SOURCES & CREDITS :

   NOAA       Earth
Advisory